Time;durP1;ratioP1;P1;durP2;ratioP2;P2;SDS_P1;SDS_P2;PMS_P1;PMS_P2;Temp;Humidity;BMP_temperature;BMP_pressure;BME280_temperature;BME280_humidity;BME280_pressure;Samples;Min_cycle;Max_cycle;Signal;HPM_P1;HPM_P2
2022/06/15 00:04:48;;;;;;;4.60;1.45;;;14.30;99.90;;;;;;12217594;29;20492;-34
2022/06/15 00:10:50;;;;;;;9.90;1.92;;;14.50;99.90;;;;;;12210815;29;20082;-34
2022/06/15 00:16:52;;;;;;;6.20;1.88;;;14.40;99.90;;;;;;12211821;29;20051;-38
2022/06/15 00:22:54;;;;;;;4.00;1.88;;;14.30;99.90;;;;;;12197886;29;20138;-37
2022/06/15 00:28:56;;;;;;;6.40;1.90;;;14.30;99.90;;;;;;12200098;29;20512;-38
2022/06/15 00:34:58;;;;;;;6.38;2.03;;;14.30;99.90;;;;;;12206000;29;20118;-37
2022/06/15 00:41:01;;;;;;;6.40;2.10;;;14.10;99.90;;;;;;12207140;29;20060;-38
2022/06/15 00:47:22;;;;;;;6.03;2.10;;;13.90;99.90;;;;;;12214155;29;20481;-35
2022/06/15 00:53:24;;;;;;;7.07;1.88;;;13.90;99.90;;;;;;12203047;29;20135;-37
2022/06/15 00:59:33;;;;;;;5.85;2.10;;;13.70;99.90;;;;;;12205513;29;20087;-38
2022/06/15 01:05:44;;;;;;;8.32;2.00;;;13.60;99.90;;;;;;12196319;29;20139;-39
2022/06/15 01:12:05;;;;;;;5.80;2.10;;;13.50;99.90;;;;;;12204751;29;20468;-39
2022/06/15 01:18:25;;;;;;;5.30;1.92;;;13.60;99.90;;;;;;12208390;29;20594;-37
2022/06/15 01:25:02;;;;;;;7.20;1.92;;;13.50;99.90;;;;;;12210683;29;20559;-35
2022/06/15 01:31:15;;;;;;;7.78;1.90;;;13.50;99.90;;;;;;12210823;29;20139;-34
2022/06/15 01:37:32;;;;;;;5.37;1.80;;;13.40;99.90;;;;;;12209790;29;20048;-38
2022/06/15 01:43:41;;;;;;;3.63;1.65;;;13.30;99.90;;;;;;12209483;29;20055;-34
2022/06/15 01:50:01;;;;;;;5.88;1.98;;;13.30;99.90;;;;;;12203047;29;20420;-38
2022/06/15 01:56:13;;;;;;;4.70;2.00;;;13.20;99.90;;;;;;12201816;29;20103;-35
2022/06/15 02:02:54;;;;;;;5.38;2.10;;;13.10;99.90;;;;;;12201279;29;20052;-39
2022/06/15 02:09:03;;;;;;;4.93;1.88;;;13.00;99.90;;;;;;12200290;29;20127;-39
2022/06/15 02:15:07;;;;;;;8.10;2.05;;;13.00;99.90;;;;;;12207006;29;20150;-35
2022/06/15 02:21:13;;;;;;;8.35;2.33;;;12.90;99.90;;;;;;12204437;29;20389;-35
2022/06/15 02:27:16;;;;;;;7.82;2.65;;;12.70;99.90;;;;;;12203973;29;20493;-35
2022/06/15 02:33:30;;;;;;;6.30;2.10;;;12.50;99.90;;;;;;12197872;29;20116;-38
2022/06/15 02:39:32;;;;;;;5.72;2.53;;;12.50;99.90;;;;;;12196662;29;20059;-34
2022/06/15 02:45:38;;;;;;;6.07;2.65;;;12.40;99.90;;;;;;12197181;29;20639;-39
2022/06/15 02:51:55;;;;;;;8.90;3.13;;;12.40;99.90;;;;;;12200490;29;20139;-34
2022/06/15 02:58:09;;;;;;;6.32;2.35;;;12.70;99.90;;;;;;12199678;29;20052;-39
2022/06/15 03:04:11;;;;;;;5.53;2.47;;;12.70;99.90;;;;;;12195599;29;20468;-35
2022/06/15 03:10:12;;;;;;;7.13;2.40;;;12.80;99.90;;;;;;12202940;29;20107;-39
2022/06/15 03:16:14;;;;;;;7.00;2.92;;;12.80;99.90;;;;;;12206559;29;20060;-39
2022/06/15 03:22:16;;;;;;;9.05;2.45;;;12.70;99.90;;;;;;12204177;29;20048;-38
2022/06/15 03:28:18;;;;;;;7.50;2.63;;;12.70;99.90;;;;;;12210788;29;20545;-39
2022/06/15 03:34:19;;;;;;;6.13;2.42;;;12.60;99.90;;;;;;12213329;29;20086;-35
2022/06/15 03:40:21;;;;;;;5.68;2.40;;;12.70;99.90;;;;;;12204859;29;20063;-39
2022/06/15 03:46:23;;;;;;;5.72;2.10;;;12.60;99.90;;;;;;12211918;29;20484;-34
2022/06/15 03:52:26;;;;;;;8.88;2.40;;;12.50;99.90;;;;;;12187793;29;20081;-39
2022/06/15 03:58:28;;;;;;;8.90;2.58;;;12.40;99.90;;;;;;12215683;29;20135;-36
2022/06/15 04:04:30;;;;;;;7.40;2.60;;;12.40;99.90;;;;;;12210091;29;20139;-37
2022/06/15 04:10:33;;;;;;;6.93;2.40;;;12.50;99.90;;;;;;12223311;29;20059;-37
2022/06/15 04:16:35;;;;;;;6.55;2.50;;;12.60;99.90;;;;;;12206567;29;20048;-35
2022/06/15 04:22:37;;;;;;;5.93;2.25;;;12.50;99.90;;;;;;12201159;29;20052;-39
2022/06/15 04:28:41;;;;;;;6.82;2.53;;;12.50;99.90;;;;;;12203498;29;20059;-35
2022/06/15 04:34:42;;;;;;;5.35;2.70;;;12.60;99.90;;;;;;12198879;29;20062;-39
2022/06/15 04:40:44;;;;;;;6.25;2.75;;;12.60;99.90;;;;;;12196515;29;20079;-36
2022/06/15 04:46:46;;;;;;;9.20;3.10;;;12.70;99.90;;;;;;12185907;29;20552;-34
2022/06/15 04:52:48;;;;;;;7.38;2.55;;;12.90;99.90;;;;;;12199387;29;20055;-39
2022/06/15 04:58:50;;;;;;;7.65;2.88;;;13.00;99.90;;;;;;12205418;29;20854;-38
2022/06/15 05:04:53;;;;;;;5.88;2.63;;;13.00;99.90;;;;;;12198604;29;20052;-38
2022/06/15 05:10:55;;;;;;;7.55;3.03;;;13.00;99.90;;;;;;12201720;29;20143;-35
2022/06/15 05:16:57;;;;;;;6.45;3.10;;;13.10;99.90;;;;;;12206348;29;20213;-35
2022/06/15 05:22:59;;;;;;;8.45;3.25;;;13.00;99.90;;;;;;12199128;29;20052;-39
2022/06/15 05:29:01;;;;;;;9.07;3.15;;;13.10;99.90;;;;;;12194387;29;20417;-34
2022/06/15 05:35:03;;;;;;;6.20;3.33;;;13.20;99.90;;;;;;12201662;29;20099;-35
2022/06/15 05:41:05;;;;;;;7.40;3.33;;;13.20;99.90;;;;;;12209008;29;20106;-35
2022/06/15 05:47:10;;;;;;;6.22;3.10;;;13.30;99.90;;;;;;12211257;29;20404;-35
2022/06/15 05:53:13;;;;;;;8.20;2.95;;;13.40;99.90;;;;;;12204809;29;20044;-38
2022/06/15 05:59:15;;;;;;;9.23;3.40;;;13.50;99.90;;;;;;12201971;29;20060;-40
2022/06/15 06:05:18;;;;;;;7.90;3.38;;;13.60;99.90;;;;;;12199002;29;20044;-34
2022/06/15 06:11:21;;;;;;;8.27;3.00;;;13.60;99.90;;;;;;12200571;29;20064;-35
2022/06/15 06:17:23;;;;;;;9.48;3.20;;;13.70;99.90;;;;;;12206915;29;20071;-39
2022/06/15 06:23:25;;;;;;;11.55;3.13;;;13.90;99.90;;;;;;12202393;29;20195;-38
2022/06/15 06:29:29;;;;;;;10.70;3.00;;;14.00;99.90;;;;;;12202040;29;20394;-35
2022/06/15 06:35:30;;;;;;;14.60;3.13;;;14.00;99.90;;;;;;12195592;29;20087;-35
2022/06/15 06:41:33;;;;;;;8.80;2.80;;;14.30;99.90;;;;;;12202336;29;20111;-35
2022/06/15 06:47:35;;;;;;;7.18;2.72;;;14.40;99.90;;;;;;12195732;29;20499;-38
2022/06/15 06:53:37;;;;;;;4.95;2.20;;;14.70;99.90;;;;;;12212124;29;20481;-38
2022/06/15 06:59:39;;;;;;;10.40;2.60;;;14.90;99.90;;;;;;12217733;29;20485;-35
2022/06/15 07:05:41;;;;;;;6.10;2.95;;;15.00;99.90;;;;;;12209720;29;20080;-35
2022/06/15 07:11:44;;;;;;;5.40;2.35;;;15.10;99.90;;;;;;12207815;29;20187;-41
2022/06/15 07:17:46;;;;;;;6.20;2.10;;;15.50;99.90;;;;;;12207349;29;20044;-35
2022/06/15 07:23:50;;;;;;;5.95;2.50;;;15.50;99.90;;;;;;12209304;29;20514;-35
2022/06/15 07:29:55;;;;;;;;;;;15.70;99.90;;;;;;12209052;29;20408;-39
2022/06/15 07:35:57;;;;;;;6.00;2.17;;;15.90;99.90;;;;;;12254098;23;19970;-82
2022/06/15 07:42:00;;;;;;;6.15;2.17;;;16.10;99.90;;;;;;12228733;29;21339;-81
2022/06/15 07:54:24;;;;;;;4.82;1.90;;;16.50;99.90;;;;;;12209942;29;20104;-82
2022/06/15 08:00:27;;;;;;;6.25;2.10;;;16.70;99.90;;;;;;12179542;29;20087;-82
2022/06/15 08:06:31;;;;;;;5.10;1.77;;;16.70;99.90;;;;;;12202150;29;20055;-82
2022/06/15 08:12:33;;;;;;;6.60;1.92;;;16.70;99.90;;;;;;12192126;29;20564;-81
2022/06/15 08:18:40;;;;;;;13.10;2.85;;;16.80;99.90;;;;;;12201381;29;20092;-82
2022/06/15 08:24:44;;;;;;;6.65;2.58;;;17.10;99.90;;;;;;12178697;29;20044;-82
2022/06/15 08:30:46;;;;;;;6.83;2.30;;;17.00;99.90;;;;;;12168010;29;20064;-81
2022/06/15 08:36:48;;;;;;;6.63;2.07;;;17.00;99.90;;;;;;12199390;29;20071;-82
2022/06/15 08:42:57;;;;;;;8.18;2.20;;;16.90;99.90;;;;;;12177409;29;20409;-82
2022/06/15 08:49:14;;;;;;;5.25;2.10;;;16.90;99.90;;;;;;12181063;29;20080;-83
2022/06/15 08:55:24;;;;;;;7.22;2.53;;;17.00;99.90;;;;;;12168775;29;20640;-82
2022/06/15 09:01:53;;;;;;;7.70;2.10;;;17.30;99.90;;;;;;12208676;29;20086;-82
2022/06/15 09:08:11;;;;;;;5.35;2.35;;;17.60;99.90;;;;;;12154870;29;20104;-82
2022/06/15 09:14:41;;;;;;;9.10;2.58;;;17.70;99.90;;;;;;12176278;29;20139;-82
2022/06/15 09:20:47;;;;;;;10.98;2.53;;;17.90;99.90;;;;;;12194383;29;20114;-82
2022/06/15 09:26:56;;;;;;;11.02;2.63;;;18.30;99.90;;;;;;12195998;29;20081;-81
2022/06/15 09:33:05;;;;;;;5.53;2.58;;;18.40;99.90;;;;;;12183929;29;20131;-83
2022/06/15 09:39:07;;;;;;;7.50;2.88;;;18.40;99.90;;;;;;12175415;29;20170;-82
2022/06/15 09:45:23;;;;;;;5.57;2.15;;;18.50;99.90;;;;;;12207800;29;20048;-83
2022/06/15 09:51:55;;;;;;;6.40;2.40;;;18.70;99.90;;;;;;12178698;29;20497;-82
2022/06/15 09:57:58;;;;;;;7.47;2.20;;;19.00;99.90;;;;;;12176399;29;20096;-82
2022/06/15 10:04:03;;;;;;;6.43;2.42;;;19.10;99.90;;;;;;12175713;29;20048;-82
2022/06/15 10:10:17;;;;;;;6.78;2.25;;;19.40;99.90;;;;;;12175435;29;20052;-82
2022/06/15 10:16:30;;;;;;;6.45;2.40;;;19.50;99.90;;;;;;12200955;29;20056;-83
2022/06/15 10:22:41;;;;;;;9.60;2.45;;;19.70;99.90;;;;;;12187703;29;20496;-82
2022/06/15 10:28:42;;;;;;;6.07;2.13;;;19.90;99.90;;;;;;12180854;29;20127;-82
2022/06/15 10:34:47;;;;;;;7.75;2.45;;;20.10;99.90;;;;;;12187777;29;20116;-82
2022/06/15 10:47:34;;;;;;;6.85;2.10;;;20.50;99.90;;;;;;12202468;29;20083;-83
2022/06/15 10:54:12;;;;;;;8.30;2.42;;;20.70;99.90;;;;;;12187552;29;20090;-82
2022/06/15 11:06:58;;;;;;;8.10;2.28;;;21.00;99.90;;;;;;12205792;29;20056;-83
2022/06/15 11:13:21;;;;;;;7.40;2.60;;;21.20;99.90;;;;;;12197169;29;20119;-82
2022/06/15 11:19:26;;;;;;;5.55;2.10;;;21.50;99.90;;;;;;12166999;29;20192;-82
2022/06/15 11:25:42;;;;;;;6.32;2.30;;;21.50;99.90;;;;;;12192342;29;20048;-83
2022/06/15 11:31:44;;;;;;;12.57;3.08;;;21.60;99.90;;;;;;12180425;29;20107;-83
2022/06/15 11:37:53;;;;;;;7.53;2.42;;;21.80;99.90;;;;;;12196761;29;20060;-83
2022/06/15 11:43:57;;;;;;;5.60;2.00;;;21.90;99.90;;;;;;12187169;29;20513;-82
2022/06/15 11:50:27;;;;;;;5.40;2.15;;;21.90;99.90;;;;;;12197241;29;20532;-82
2022/06/15 11:56:37;;;;;;;5.47;1.85;;;22.20;99.90;;;;;;12203663;29;20060;-83
2022/06/15 12:02:45;;;;;;;8.18;2.38;;;22.40;99.90;;;;;;12193713;29;20029;-84
2022/06/15 12:08:54;;;;;;;7.50;2.03;;;22.60;99.90;;;;;;12214935;29;20146;-84
2022/06/15 12:15:05;;;;;;;6.25;2.17;;;23.00;99.90;;;;;;12181048;29;20447;-83
2022/06/15 12:21:23;;;;;;;3.97;1.65;;;23.30;99.90;;;;;;12201650;29;20095;-83
2022/06/15 12:27:41;;;;;;;3.75;1.40;;;23.40;99.90;;;;;;12189969;29;20135;-83
2022/06/15 12:33:49;;;;;;;8.45;2.45;;;23.30;99.90;;;;;;12187450;29;20060;-82
2022/06/15 12:40:23;;;;;;;5.90;1.90;;;23.10;99.90;;;;;;12177490;29;20139;-83
2022/06/15 12:46:26;;;;;;;7.75;1.73;;;22.90;99.90;;;;;;12187784;29;20048;-83
2022/06/15 12:52:39;;;;;;;6.97;1.75;;;23.00;99.90;;;;;;12204031;29;20189;-83
2022/06/15 12:59:05;;;;;;;8.45;2.05;;;23.10;99.90;;;;;;12188703;29;20064;-83
2022/06/15 13:05:32;;;;;;;7.45;1.80;;;23.40;99.90;;;;;;12194554;29;20052;-85
2022/06/15 13:12:02;;;;;;;6.13;2.13;;;23.80;99.90;;;;;;12178330;29;20048;-83
2022/06/15 13:18:09;;;;;;;5.10;1.50;;;24.00;99.90;;;;;;12198962;29;20142;-82
2022/06/15 13:24:11;;;;;;;4.03;1.33;;;23.80;99.90;;;;;;12192109;29;20055;-83
2022/06/15 13:30:32;;;;;;;5.60;1.40;;;23.60;99.90;;;;;;12194936;29;20092;-83
2022/06/15 13:36:36;;;;;;;5.47;1.50;;;23.60;99.90;;;;;;12194207;29;20060;-82
2022/06/15 13:42:47;;;;;;;3.95;1.60;;;23.60;99.90;;;;;;12205402;29;20059;-83
2022/06/15 13:48:52;;;;;;;6.53;1.70;;;23.60;99.90;;;;;;12186746;29;20095;-83
2022/06/15 13:55:31;;;;;;;4.25;1.40;;;23.60;99.90;;;;;;12186601;29;20052;-83
2022/06/15 14:01:41;;;;;;;6.88;1.70;;;23.60;99.90;;;;;;12189478;29;20132;-84
2022/06/15 14:08:21;;;;;;;3.53;1.35;;;23.60;99.90;;;;;;12214829;29;20099;-84
2022/06/15 14:14:37;;;;;;;6.40;1.70;;;23.50;99.90;;;;;;12196472;29;20131;-83
2022/06/15 14:20:46;;;;;;;5.07;1.40;;;23.60;99.90;;;;;;12182628;29;20567;-82
2022/06/15 14:26:50;;;;;;;5.82;1.90;;;23.60;99.90;;;;;;12200684;29;20087;-83
2022/06/15 14:32:57;;;;;;;4.13;1.40;;;23.70;99.90;;;;;;12175306;29;20045;-83
2022/06/15 14:39:08;;;;;;;4.47;1.35;;;23.70;99.90;;;;;;12187786;29;20121;-82
2022/06/15 14:45:21;;;;;;;3.90;1.42;;;23.70;99.90;;;;;;12177919;29;20092;-83
2022/06/15 14:51:26;;;;;;;3.95;1.55;;;23.50;99.90;;;;;;12197411;29;20208;-83
2022/06/15 14:57:31;;;;;;;4.88;1.70;;;23.60;99.90;;;;;;12192500;29;20522;-83
2022/06/15 15:03:35;;;;;;;5.78;1.40;;;23.70;99.90;;;;;;12194466;29;20151;-83
2022/06/15 15:09:43;;;;;;;3.58;1.35;;;23.60;99.90;;;;;;12167872;29;20071;-83
2022/06/15 15:16:00;;;;;;;4.38;1.50;;;23.80;99.90;;;;;;12199482;29;20469;-83
2022/06/15 15:22:22;;;;;;;4.82;1.50;;;23.90;99.90;;;;;;12191860;29;20421;-84
2022/06/15 15:35:07;;;;;;;4.90;1.63;;;23.60;99.90;;;;;;12209199;29;20079;-83
2022/06/15 15:41:09;;;;;;;4.75;1.67;;;23.60;99.90;;;;;;12181297;29;20063;-83
2022/06/15 15:47:15;;;;;;;3.85;1.48;;;23.70;99.90;;;;;;12179882;29;20055;-84
2022/06/15 15:53:16;;;;;;;5.68;1.70;;;23.90;99.90;;;;;;12184720;29;20063;-82
2022/06/15 15:59:21;;;;;;;3.80;1.35;;;23.80;99.90;;;;;;12187677;29;20428;-81
2022/06/15 16:05:24;;;;;;;2.80;1.25;;;24.00;99.90;;;;;;12199054;29;20049;-82
2022/06/15 16:11:26;;;;;;;3.33;1.17;;;24.10;99.90;;;;;;12191819;29;20169;-82
2022/06/15 16:17:30;;;;;;;2.63;1.30;;;24.30;99.90;;;;;;12193627;29;20103;-82
2022/06/15 16:23:34;;;;;;;3.40;1.20;;;24.50;99.90;;;;;;12193609;29;20123;-82
2022/06/15 16:29:40;;;;;;;4.30;1.05;;;24.60;99.90;;;;;;12220723;29;20093;-83
2022/06/15 16:35:43;;;;;;;2.83;1.27;;;24.40;99.90;;;;;;12232093;28;20406;-83
2022/06/15 16:41:45;;;;;;;4.78;1.40;;;24.50;99.90;;;;;;12188802;29;20040;-84
2022/06/15 16:47:47;;;;;;;4.18;1.25;;;24.50;99.90;;;;;;12211148;29;20043;-82
2022/06/15 16:53:53;;;;;;;4.40;1.27;;;24.40;99.90;;;;;;12183699;29;20068;-82
2022/06/15 16:59:59;;;;;;;3.90;1.60;;;24.40;99.90;;;;;;12197384;29;20088;-82
2022/06/15 17:06:04;;;;;;;3.80;1.30;;;24.40;99.90;;;;;;12183507;29;20052;-83
2022/06/15 17:12:09;;;;;;;2.53;1.05;;;24.50;99.90;;;;;;12178981;29;20059;-82
2022/06/15 17:18:12;;;;;;;6.25;1.25;;;24.60;99.90;;;;;;12182735;29;20552;-82
2022/06/15 17:24:14;;;;;;;5.43;1.07;;;24.60;99.90;;;;;;12178228;29;20044;-82
2022/06/15 17:30:16;;;;;;;5.38;1.55;;;24.40;99.90;;;;;;12195106;29;20056;-83
2022/06/15 17:36:19;;;;;;;5.10;1.30;;;24.20;99.90;;;;;;12185008;29;20154;-82
2022/06/15 17:42:22;;;;;;;4.85;1.45;;;24.10;99.90;;;;;;12180443;29;20131;-82
2022/06/15 17:48:24;;;;;;;5.82;1.70;;;24.20;99.90;;;;;;12184367;29;20060;-83
2022/06/15 17:54:26;;;;;;;5.43;1.23;;;24.10;99.90;;;;;;12184822;29;20571;-83
2022/06/15 18:00:28;;;;;;;6.63;1.52;;;23.90;99.90;;;;;;12184722;29;20416;-83
2022/06/15 18:06:29;;;;;;;5.85;1.73;;;23.90;99.90;;;;;;12193299;29;20052;-83
2022/06/15 18:12:33;;;;;;;3.58;1.35;;;23.60;99.90;;;;;;12172198;29;20052;-82
2022/06/15 18:18:37;;;;;;;3.25;1.40;;;23.40;99.90;;;;;;12188935;29;20082;-82
2022/06/15 18:24:42;;;;;;;4.05;1.48;;;23.00;99.90;;;;;;12196249;29;20077;-82
2022/06/15 18:30:44;;;;;;;5.22;1.58;;;22.60;99.90;;;;;;12201616;29;20139;-82
2022/06/15 18:36:48;;;;;;;6.80;1.70;;;22.50;99.90;;;;;;12223721;29;20087;-82
2022/06/15 18:42:51;;;;;;;6.53;1.88;;;22.30;99.90;;;;;;12196961;29;20048;-83
2022/06/15 18:48:53;;;;;;;;;;;21.70;99.90;;;;;;12197115;29;20048;-82
2022/06/15 18:54:56;;;;;;;3.95;1.50;;;21.30;99.90;;;;;;12188723;29;20391;-81
2022/06/15 19:00:58;;;;;;;5.65;1.88;;;21.10;99.90;;;;;;12174970;29;20429;-81
2022/06/15 19:06:59;;;;;;;6.28;1.80;;;20.90;99.90;;;;;;12191539;29;20064;-81
2022/06/15 19:13:01;;;;;;;6.38;1.88;;;20.70;99.90;;;;;;12185134;29;20103;-81
2022/06/15 19:19:03;;;;;;;5.18;1.65;;;20.60;99.90;;;;;;12189624;29;20080;-82
2022/06/15 19:25:07;;;;;;;8.00;1.80;;;20.50;99.90;;;;;;12150760;29;20048;-82
2022/06/15 19:31:16;;;;;;;3.92;1.73;;;20.30;99.90;;;;;;12189069;29;20045;-82
2022/06/15 19:37:19;;;;;;;4.70;2.03;;;20.10;99.90;;;;;;12173090;29;20091;-81
2022/06/15 19:43:37;;;;;;;4.15;1.65;;;19.90;99.90;;;;;;12191636;29;20044;-81
2022/06/15 19:49:39;;;;;;;6.05;1.98;;;19.90;99.90;;;;;;12181180;29;20150;-81
2022/06/15 19:55:43;;;;;;;4.05;1.80;;;19.80;99.90;;;;;;12198652;29;20139;-81
2022/06/15 20:01:45;;;;;;;5.70;2.00;;;19.70;99.90;;;;;;12191679;29;20119;-81
2022/06/15 20:07:48;;;;;;;3.80;1.70;;;19.30;99.90;;;;;;12204318;29;20059;-81
2022/06/15 20:13:50;;;;;;;8.00;2.03;;;19.20;99.90;;;;;;12201286;29;20044;-82
2022/06/15 20:19:55;;;;;;;5.57;2.13;;;18.90;99.90;;;;;;12201180;29;20127;-81
2022/06/15 20:25:59;;;;;;;5.70;2.15;;;18.60;99.90;;;;;;12174199;29;20095;-81
2022/06/15 20:32:01;;;;;;;8.52;2.67;;;18.40;99.90;;;;;;12200150;29;20052;-82
2022/06/15 20:38:03;;;;;;;5.15;2.10;;;18.20;99.90;;;;;;12198620;29;20180;-81
2022/06/15 20:44:05;;;;;;;5.15;2.13;;;18.30;99.90;;;;;;12199345;29;20056;-81
2022/06/15 20:50:11;;;;;;;5.57;1.90;;;18.00;99.90;;;;;;12204163;29;20059;-82
2022/06/15 21:02:34;;;;;;;6.47;2.03;;;17.80;99.90;;;;;;12201538;29;20056;-81
2022/06/15 21:08:35;;;;;;;4.43;1.80;;;17.70;99.90;;;;;;12178650;29;20103;-81
2022/06/15 21:17:36;;;;;;;9.38;2.38;;;17.50;99.90;;;;;;12195983;29;20063;-81
2022/06/15 21:21:08;;;;;;;7.35;2.20;;;17.40;99.90;;;;;;12202158;29;20083;-81
2022/06/15 21:27:10;;;;;;;7.63;1.85;;;17.30;99.90;;;;;;12193252;29;20060;-81
2022/06/15 21:33:12;;;;;;;3.55;1.90;;;17.20;99.90;;;;;;12188090;29;20065;-81
2022/06/15 21:39:14;;;;;;;5.75;1.90;;;17.10;99.90;;;;;;12201578;29;20052;-81
2022/06/15 21:45:21;;;;;;;6.93;2.03;;;16.90;99.90;;;;;;12214248;29;20052;-82
2022/06/15 21:51:22;;;;;;;5.70;2.10;;;16.70;99.90;;;;;;12235842;29;20037;-83
2022/06/15 21:57:24;;;;;;;5.85;1.98;;;16.80;99.90;;;;;;12224124;29;20515;-81
2022/06/15 22:03:26;;;;;;;5.80;2.00;;;16.60;99.90;;;;;;12177191;29;21595;-80
2022/06/15 22:09:31;;;;;;;4.38;2.00;;;16.60;99.90;;;;;;12177926;29;20107;-80
2022/06/15 22:15:32;;;;;;;;;;;16.70;99.90;;;;;;12186259;29;20625;-81
2022/06/15 22:21:34;;;;;;;10.48;2.17;;;16.60;99.90;;;;;;12180276;29;20343;-81
2022/06/15 22:27:38;;;;;;;7.25;1.90;;;16.60;99.90;;;;;;12198947;29;20067;-81
2022/06/15 22:33:41;;;;;;;8.40;2.10;;;16.70;99.90;;;;;;12203746;29;20208;-81
2022/06/15 22:39:43;;;;;;;5.80;2.20;;;16.70;99.90;;;;;;12189954;29;20464;-81
2022/06/15 22:45:47;;;;;;;7.25;1.90;;;16.50;99.90;;;;;;12188175;29;20205;-81
2022/06/15 22:51:48;;;;;;;6.40;1.87;;;16.60;99.90;;;;;;12176852;29;20048;-80
2022/06/15 22:57:50;;;;;;;6.68;1.98;;;16.50;99.90;;;;;;12191511;29;20131;-81
2022/06/15 23:03:52;;;;;;;5.68;2.10;;;16.50;99.90;;;;;;12187618;29;20127;-80
2022/06/15 23:09:54;;;;;;;6.88;2.00;;;16.40;99.90;;;;;;12184417;29;20500;-80
2022/06/15 23:15:56;;;;;;;5.32;2.00;;;16.40;99.90;;;;;;12174963;29;20059;-80
2022/06/15 23:21:58;;;;;;;5.50;2.25;;;16.40;99.90;;;;;;12179010;29;20457;-80
2022/06/15 23:28:01;;;;;;;6.50;2.00;;;16.30;99.90;;;;;;12182712;29;20052;-80
2022/06/15 23:34:03;;;;;;;5.67;1.93;;;16.20;99.90;;;;;;12157409;29;20131;-80
2022/06/15 23:40:06;;;;;;;6.30;2.03;;;16.30;99.90;;;;;;12183863;29;20316;-81
2022/06/15 23:52:29;;;;;;;4.60;2.20;;;16.10;99.90;;;;;;12202379;29;20157;-80
2022/06/15 23:58:32;;;;;;;4.85;2.15;;;15.90;99.90;;;;;;12193270;29;20140;-80
